sensor_id;sensor_type;location;lat;lon;timestamp;P1;durP1;ratioP1;P2;durP2;ratioP2
74559;SDS011;63032;54.340;10.138;2022-08-24T00:02:19;4.03;;;1.73;;
74559;SDS011;63032;54.340;10.138;2022-08-24T00:04:49;5.28;;;1.85;;
74559;SDS011;63032;54.340;10.138;2022-08-24T00:07:15;4.40;;;1.48;;
74559;SDS011;63032;54.340;10.138;2022-08-24T00:09:43;4.50;;;1.42;;
74559;SDS011;63032;54.340;10.138;2022-08-24T00:12:10;4.43;;;2.00;;
74559;SDS011;63032;54.340;10.138;2022-08-24T00:14:37;4.05;;;1.70;;
74559;SDS011;63032;54.340;10.138;2022-08-24T00:17:04;2.92;;;1.35;;
74559;SDS011;63032;54.340;10.138;2022-08-24T00:19:33;3.85;;;1.50;;
74559;SDS011;63032;54.340;10.138;2022-08-24T00:21:59;6.65;;;1.60;;
74559;SDS011;63032;54.340;10.138;2022-08-24T00:24:25;4.32;;;1.65;;
74559;SDS011;63032;54.340;10.138;2022-08-24T00:26:52;11.13;;;1.63;;
74559;SDS011;63032;54.340;10.138;2022-08-24T00:29:19;7.63;;;1.60;;
74559;SDS011;63032;54.340;10.138;2022-08-24T00:31:46;7.43;;;1.42;;
74559;SDS011;63032;54.340;10.138;2022-08-24T00:34:12;3.83;;;1.80;;
74559;SDS011;63032;54.340;10.138;2022-08-24T00:36:38;3.53;;;1.90;;
74559;SDS011;63032;54.340;10.138;2022-08-24T00:39:05;5.60;;;1.60;;
74559;SDS011;63032;54.340;10.138;2022-08-24T00:41:32;4.97;;;1.77;;
74559;SDS011;63032;54.340;10.138;2022-08-24T00:43:59;2.38;;;2.17;;
74559;SDS011;63032;54.340;10.138;2022-08-24T00:49:10;3.17;;;2.00;;
74559;SDS011;63032;54.340;10.138;2022-08-24T00:52:12;3.33;;;1.65;;
74559;SDS011;63032;54.340;10.138;2022-08-24T00:54:41;3.83;;;2.03;;
74559;SDS011;63032;54.340;10.138;2022-08-24T00:57:09;6.70;;;1.98;;
74559;SDS011;63032;54.340;10.138;2022-08-24T00:59:39;2.72;;;1.38;;
74559;SDS011;63032;54.340;10.138;2022-08-24T01:02:13;2.85;;;1.85;;
74559;SDS011;63032;54.340;10.138;2022-08-24T01:04:54;7.03;;;2.22;;
74559;SDS011;63032;54.340;10.138;2022-08-24T01:07:24;5.85;;;2.38;;
74559;SDS011;63032;54.340;10.138;2022-08-24T01:09:55;6.57;;;1.77;;
74559;SDS011;63032;54.340;10.138;2022-08-24T01:12:27;5.47;;;1.95;;
74559;SDS011;63032;54.340;10.138;2022-08-24T01:14:55;3.45;;;1.63;;
74559;SDS011;63032;54.340;10.138;2022-08-24T01:17:23;7.95;;;1.80;;
74559;SDS011;63032;54.340;10.138;2022-08-24T01:20:08;3.80;;;1.80;;
74559;SDS011;63032;54.340;10.138;2022-08-24T01:25:26;5.55;;;1.83;;
74559;SDS011;63032;54.340;10.138;2022-08-24T01:27:55;5.00;;;2.03;;
74559;SDS011;63032;54.340;10.138;2022-08-24T01:30:23;3.85;;;1.70;;
74559;SDS011;63032;54.340;10.138;2022-08-24T01:33:09;6.18;;;1.88;;
74559;SDS011;63032;54.340;10.138;2022-08-24T01:35:45;11.02;;;3.13;;
74559;SDS011;63032;54.340;10.138;2022-08-24T01:38:12;4.80;;;2.05;;
74559;SDS011;63032;54.340;10.138;2022-08-24T01:40:39;4.72;;;2.30;;
74559;SDS011;63032;54.340;10.138;2022-08-24T01:43:09;4.55;;;1.38;;
74559;SDS011;63032;54.340;10.138;2022-08-24T01:45:36;5.85;;;2.28;;
74559;SDS011;63032;54.340;10.138;2022-08-24T01:48:02;3.65;;;1.80;;
74559;SDS011;63032;54.340;10.138;2022-08-24T01:50:28;6.03;;;2.15;;
74559;SDS011;63032;54.340;10.138;2022-08-24T01:52:56;4.40;;;1.88;;
74559;SDS011;63032;54.340;10.138;2022-08-24T01:55:26;4.93;;;1.90;;
74559;SDS011;63032;54.340;10.138;2022-08-24T01:57:52;6.60;;;1.92;;
74559;SDS011;63032;54.340;10.138;2022-08-24T02:00:18;10.35;;;2.47;;
74559;SDS011;63032;54.340;10.138;2022-08-24T02:02:44;5.53;;;1.70;;
74559;SDS011;63032;54.340;10.138;2022-08-24T02:05:11;6.20;;;2.22;;
74559;SDS011;63032;54.340;10.138;2022-08-24T02:07:38;8.75;;;1.90;;
74559;SDS011;63032;54.340;10.138;2022-08-24T02:10:08;5.38;;;1.77;;
74559;SDS011;63032;54.340;10.138;2022-08-24T02:15:05;5.60;;;2.05;;
74559;SDS011;63032;54.340;10.138;2022-08-24T02:17:32;5.80;;;1.85;;
74559;SDS011;63032;54.340;10.138;2022-08-24T02:19:59;7.68;;;2.22;;
74559;SDS011;63032;54.340;10.138;2022-08-24T02:22:25;2.58;;;1.55;;
74559;SDS011;63032;54.340;10.138;2022-08-24T02:24:51;5.13;;;1.70;;
74559;SDS011;63032;54.340;10.138;2022-08-24T02:27:17;3.30;;;1.83;;
74559;SDS011;63032;54.340;10.138;2022-08-24T02:29:43;4.32;;;1.70;;
74559;SDS011;63032;54.340;10.138;2022-08-24T02:32:10;4.68;;;1.95;;
74559;SDS011;63032;54.340;10.138;2022-08-24T02:34:39;3.58;;;1.80;;
74559;SDS011;63032;54.340;10.138;2022-08-24T02:37:05;5.45;;;2.20;;
74559;SDS011;63032;54.340;10.138;2022-08-24T02:39:31;7.20;;;2.00;;
74559;SDS011;63032;54.340;10.138;2022-08-24T02:42:00;5.22;;;2.00;;
74559;SDS011;63032;54.340;10.138;2022-08-24T02:44:26;2.92;;;1.60;;
74559;SDS011;63032;54.340;10.138;2022-08-24T02:46:51;8.75;;;2.45;;
74559;SDS011;63032;54.340;10.138;2022-08-24T02:49:17;3.97;;;2.00;;
74559;SDS011;63032;54.340;10.138;2022-08-24T02:51:45;5.43;;;2.05;;
74559;SDS011;63032;54.340;10.138;2022-08-24T02:54:17;9.48;;;2.10;;
74559;SDS011;63032;54.340;10.138;2022-08-24T02:56:45;2.78;;;1.90;;
74559;SDS011;63032;54.340;10.138;2022-08-24T02:59:11;7.30;;;1.90;;
74559;SDS011;63032;54.340;10.138;2022-08-24T03:01:38;3.28;;;2.00;;
74559;SDS011;63032;54.340;10.138;2022-08-24T03:04:03;6.03;;;2.58;;
74559;SDS011;63032;54.340;10.138;2022-08-24T03:06:30;4.22;;;1.70;;
74559;SDS011;63032;54.340;10.138;2022-08-24T03:08:56;3.08;;;1.95;;
74559;SDS011;63032;54.340;10.138;2022-08-24T03:11:23;7.95;;;2.00;;
74559;SDS011;63032;54.340;10.138;2022-08-24T03:13:49;9.52;;;2.72;;
74559;SDS011;63032;54.340;10.138;2022-08-24T03:16:14;4.22;;;2.10;;
74559;SDS011;63032;54.340;10.138;2022-08-24T03:18:40;3.70;;;1.60;;
74559;SDS011;63032;54.340;10.138;2022-08-24T03:21:06;3.65;;;1.90;;
74559;SDS011;63032;54.340;10.138;2022-08-24T03:23:32;2.78;;;2.20;;
74559;SDS011;63032;54.340;10.138;2022-08-24T03:25:58;7.40;;;2.15;;
74559;SDS011;63032;54.340;10.138;2022-08-24T03:28:25;5.55;;;1.92;;
74559;SDS011;63032;54.340;10.138;2022-08-24T03:30:51;5.57;;;2.30;;
74559;SDS011;63032;54.340;10.138;2022-08-24T03:33:18;9.75;;;2.83;;
74559;SDS011;63032;54.340;10.138;2022-08-24T03:35:46;7.90;;;2.00;;
74559;SDS011;63032;54.340;10.138;2022-08-24T03:38:13;6.78;;;2.03;;
74559;SDS011;63032;54.340;10.138;2022-08-24T03:40:39;4.68;;;2.05;;
74559;SDS011;63032;54.340;10.138;2022-08-24T03:43:05;6.38;;;2.63;;
74559;SDS011;63032;54.340;10.138;2022-08-24T03:45:31;7.78;;;2.08;;
74559;SDS011;63032;54.340;10.138;2022-08-24T03:47:57;4.38;;;2.05;;
74559;SDS011;63032;54.340;10.138;2022-08-24T03:50:23;4.35;;;2.45;;
74559;SDS011;63032;54.340;10.138;2022-08-24T03:52:49;6.40;;;2.10;;
74559;SDS011;63032;54.340;10.138;2022-08-24T03:55:15;9.25;;;3.03;;
74559;SDS011;63032;54.340;10.138;2022-08-24T03:57:41;3.25;;;1.98;;
74559;SDS011;63032;54.340;10.138;2022-08-24T04:00:08;5.82;;;2.65;;
74559;SDS011;63032;54.340;10.138;2022-08-24T04:02:36;4.78;;;2.28;;
74559;SDS011;63032;54.340;10.138;2022-08-24T04:05:02;5.65;;;2.70;;
74559;SDS011;63032;54.340;10.138;2022-08-24T04:07:31;5.82;;;2.35;;
74559;SDS011;63032;54.340;10.138;2022-08-24T04:09:57;10.65;;;2.20;;
74559;SDS011;63032;54.340;10.138;2022-08-24T04:12:23;5.63;;;2.22;;
74559;SDS011;63032;54.340;10.138;2022-08-24T04:14:52;3.67;;;2.25;;
74559;SDS011;63032;54.340;10.138;2022-08-24T04:17:19;3.65;;;2.25;;
74559;SDS011;63032;54.340;10.138;2022-08-24T04:19:45;4.82;;;2.45;;
74559;SDS011;63032;54.340;10.138;2022-08-24T04:22:24;4.80;;;2.33;;
74559;SDS011;63032;54.340;10.138;2022-08-24T04:24:52;7.38;;;2.47;;
74559;SDS011;63032;54.340;10.138;2022-08-24T04:27:19;6.20;;;2.70;;
74559;SDS011;63032;54.340;10.138;2022-08-24T04:29:44;6.22;;;2.75;;
74559;SDS011;63032;54.340;10.138;2022-08-24T04:32:10;5.80;;;2.60;;
74559;SDS011;63032;54.340;10.138;2022-08-24T04:34:36;4.88;;;2.50;;
74559;SDS011;63032;54.340;10.138;2022-08-24T04:37:02;5.47;;;2.92;;
74559;SDS011;63032;54.340;10.138;2022-08-24T04:39:28;5.50;;;2.63;;
74559;SDS011;63032;54.340;10.138;2022-08-24T04:41:53;4.32;;;2.67;;
74559;SDS011;63032;54.340;10.138;2022-08-24T04:44:21;5.10;;;2.78;;
74559;SDS011;63032;54.340;10.138;2022-08-24T04:46:50;4.60;;;2.97;;
74559;SDS011;63032;54.340;10.138;2022-08-24T04:49:15;13.52;;;3.38;;
74559;SDS011;63032;54.340;10.138;2022-08-24T04:51:41;5.75;;;3.05;;
74559;SDS011;63032;54.340;10.138;2022-08-24T04:54:07;5.22;;;3.60;;
74559;SDS011;63032;54.340;10.138;2022-08-24T04:56:33;9.50;;;3.63;;
74559;SDS011;63032;54.340;10.138;2022-08-24T04:59:00;7.30;;;3.10;;
74559;SDS011;63032;54.340;10.138;2022-08-24T05:01:27;7.82;;;4.13;;
74559;SDS011;63032;54.340;10.138;2022-08-24T05:03:54;9.55;;;2.88;;
74559;SDS011;63032;54.340;10.138;2022-08-24T05:06:21;7.57;;;3.47;;
74559;SDS011;63032;54.340;10.138;2022-08-24T05:08:48;6.18;;;3.45;;
74559;SDS011;63032;54.340;10.138;2022-08-24T05:11:15;6.70;;;2.90;;
74559;SDS011;63032;54.340;10.138;2022-08-24T05:13:42;8.88;;;4.30;;
74559;SDS011;63032;54.340;10.138;2022-08-24T05:16:09;5.90;;;2.78;;
74559;SDS011;63032;54.340;10.138;2022-08-24T05:18:38;6.95;;;3.67;;
74559;SDS011;63032;54.340;10.138;2022-08-24T05:21:08;8.18;;;3.50;;
74559;SDS011;63032;54.340;10.138;2022-08-24T05:23:36;4.93;;;2.92;;
74559;SDS011;63032;54.340;10.138;2022-08-24T05:26:12;7.28;;;3.05;;
74559;SDS011;63032;54.340;10.138;2022-08-24T05:28:40;4.68;;;3.08;;
74559;SDS011;63032;54.340;10.138;2022-08-24T05:31:08;7.05;;;3.42;;
74559;SDS011;63032;54.340;10.138;2022-08-24T05:33:54;4.32;;;3.25;;
74559;SDS011;63032;54.340;10.138;2022-08-24T05:36:22;4.93;;;3.10;;
74559;SDS011;63032;54.340;10.138;2022-08-24T05:38:52;6.65;;;2.63;;
74559;SDS011;63032;54.340;10.138;2022-08-24T05:41:19;7.78;;;3.35;;
74559;SDS011;63032;54.340;10.138;2022-08-24T05:43:45;8.75;;;3.15;;
74559;SDS011;63032;54.340;10.138;2022-08-24T05:46:10;12.63;;;4.25;;
74559;SDS011;63032;54.340;10.138;2022-08-24T05:48:37;6.38;;;2.97;;
74559;SDS011;63032;54.340;10.138;2022-08-24T05:51:04;6.75;;;3.42;;
74559;SDS011;63032;54.340;10.138;2022-08-24T05:53:30;5.45;;;3.50;;
74559;SDS011;63032;54.340;10.138;2022-08-24T05:55:57;3.45;;;2.92;;
74559;SDS011;63032;54.340;10.138;2022-08-24T05:58:26;9.93;;;3.65;;
74559;SDS011;63032;54.340;10.138;2022-08-24T06:00:51;3.20;;;2.33;;
74559;SDS011;63032;54.340;10.138;2022-08-24T06:03:17;6.63;;;3.65;;
74559;SDS011;63032;54.340;10.138;2022-08-24T06:05:43;6.75;;;2.53;;
74559;SDS011;63032;54.340;10.138;2022-08-24T06:08:10;10.00;;;3.63;;
74559;SDS011;63032;54.340;10.138;2022-08-24T06:10:41;9.90;;;2.80;;
74559;SDS011;63032;54.340;10.138;2022-08-24T06:13:09;8.65;;;2.70;;
74559;SDS011;63032;54.340;10.138;2022-08-24T06:15:36;6.18;;;2.55;;
74559;SDS011;63032;54.340;10.138;2022-08-24T06:18:03;3.78;;;2.20;;
74559;SDS011;63032;54.340;10.138;2022-08-24T06:20:29;7.32;;;1.88;;
74559;SDS011;63032;54.340;10.138;2022-08-24T06:22:55;4.93;;;2.55;;
74559;SDS011;63032;54.340;10.138;2022-08-24T06:25:21;7.53;;;2.53;;
74559;SDS011;63032;54.340;10.138;2022-08-24T06:30:31;5.30;;;2.33;;
74559;SDS011;63032;54.340;10.138;2022-08-24T06:32:58;2.85;;;1.48;;
74559;SDS011;63032;54.340;10.138;2022-08-24T06:35:25;9.45;;;2.47;;
74559;SDS011;63032;54.340;10.138;2022-08-24T06:37:50;3.30;;;2.05;;
74559;SDS011;63032;54.340;10.138;2022-08-24T06:40:16;6.78;;;2.13;;
74559;SDS011;63032;54.340;10.138;2022-08-24T06:42:44;7.97;;;1.85;;
74559;SDS011;63032;54.340;10.138;2022-08-24T06:45:10;3.47;;;1.52;;
74559;SDS011;63032;54.340;10.138;2022-08-24T06:47:36;4.88;;;1.80;;
74559;SDS011;63032;54.340;10.138;2022-08-24T06:50:02;4.93;;;1.60;;
74559;SDS011;63032;54.340;10.138;2022-08-24T06:52:29;5.53;;;1.73;;
74559;SDS011;63032;54.340;10.138;2022-08-24T06:54:55;3.40;;;1.40;;
74559;SDS011;63032;54.340;10.138;2022-08-24T06:57:21;3.78;;;1.50;;
74559;SDS011;63032;54.340;10.138;2022-08-24T06:59:47;1.92;;;1.50;;
74559;SDS011;63032;54.340;10.138;2022-08-24T07:02:12;2.67;;;1.52;;
74559;SDS011;63032;54.340;10.138;2022-08-24T07:04:40;4.18;;;1.88;;
74559;SDS011;63032;54.340;10.138;2022-08-24T07:07:06;3.78;;;1.35;;
74559;SDS011;63032;54.340;10.138;2022-08-24T07:09:32;3.75;;;1.67;;
74559;SDS011;63032;54.340;10.138;2022-08-24T07:11:58;4.47;;;1.67;;
74559;SDS011;63032;54.340;10.138;2022-08-24T07:14:24;4.95;;;1.50;;
74559;SDS011;63032;54.340;10.138;2022-08-24T07:16:50;2.42;;;1.92;;
74559;SDS011;63032;54.340;10.138;2022-08-24T07:19:15;2.78;;;1.40;;
74559;SDS011;63032;54.340;10.138;2022-08-24T07:21:41;4.10;;;1.70;;
74559;SDS011;63032;54.340;10.138;2022-08-24T07:24:07;4.55;;;1.80;;
74559;SDS011;63032;54.340;10.138;2022-08-24T07:26:33;2.97;;;1.45;;
74559;SDS011;63032;54.340;10.138;2022-08-24T07:29:00;3.05;;;1.80;;
74559;SDS011;63032;54.340;10.138;2022-08-24T07:31:31;3.10;;;1.65;;
74559;SDS011;63032;54.340;10.138;2022-08-24T07:33:58;2.60;;;1.40;;
74559;SDS011;63032;54.340;10.138;2022-08-24T07:36:24;2.80;;;1.55;;
74559;SDS011;63032;54.340;10.138;2022-08-24T07:38:50;4.45;;;1.88;;
74559;SDS011;63032;54.340;10.138;2022-08-24T07:41:16;2.90;;;1.42;;
74559;SDS011;63032;54.340;10.138;2022-08-24T07:43:42;2.78;;;1.70;;
74559;SDS011;63032;54.340;10.138;2022-08-24T07:46:10;2.55;;;1.58;;
74559;SDS011;63032;54.340;10.138;2022-08-24T07:48:37;3.35;;;1.40;;
74559;SDS011;63032;54.340;10.138;2022-08-24T07:51:07;5.43;;;1.50;;
74559;SDS011;63032;54.340;10.138;2022-08-24T07:53:41;3.38;;;1.83;;
74559;SDS011;63032;54.340;10.138;2022-08-24T07:56:07;2.53;;;1.58;;
74559;SDS011;63032;54.340;10.138;2022-08-24T07:58:33;2.42;;;1.40;;
74559;SDS011;63032;54.340;10.138;2022-08-24T08:00:59;2.42;;;1.35;;
74559;SDS011;63032;54.340;10.138;2022-08-24T08:03:26;5.07;;;1.42;;
74559;SDS011;63032;54.340;10.138;2022-08-24T08:05:56;2.10;;;1.50;;
74559;SDS011;63032;54.340;10.138;2022-08-24T08:08:23;2.95;;;1.50;;
74559;SDS011;63032;54.340;10.138;2022-08-24T08:10:50;1.95;;;1.50;;
74559;SDS011;63032;54.340;10.138;2022-08-24T08:13:15;1.52;;;1.40;;
74559;SDS011;63032;54.340;10.138;2022-08-24T08:15:42;1.52;;;1.10;;
74559;SDS011;63032;54.340;10.138;2022-08-24T08:18:08;1.98;;;1.30;;
74559;SDS011;63032;54.340;10.138;2022-08-24T08:20:36;1.52;;;1.15;;
74559;SDS011;63032;54.340;10.138;2022-08-24T08:23:03;2.50;;;1.30;;
74559;SDS011;63032;54.340;10.138;2022-08-24T08:25:48;2.00;;;1.55;;
74559;SDS011;63032;54.340;10.138;2022-08-24T08:28:16;1.83;;;1.23;;
74559;SDS011;63032;54.340;10.138;2022-08-24T08:30:43;1.67;;;1.42;;
74559;SDS011;63032;54.340;10.138;2022-08-24T08:33:09;2.25;;;1.63;;
74559;SDS011;63032;54.340;10.138;2022-08-24T08:35:36;1.63;;;1.23;;
74559;SDS011;63032;54.340;10.138;2022-08-24T08:38:02;2.35;;;1.15;;
74559;SDS011;63032;54.340;10.138;2022-08-24T08:46:12;1.33;;;1.23;;
74559;SDS011;63032;54.340;10.138;2022-08-24T08:48:53;1.95;;;1.20;;
74559;SDS011;63032;54.340;10.138;2022-08-24T08:54:36;1.88;;;1.20;;
74559;SDS011;63032;54.340;10.138;2022-08-24T09:19:13;1.85;;;1.10;;
74559;SDS011;63032;54.340;10.138;2022-08-24T09:35:16;1.25;;;1.02;;
74559;SDS011;63032;54.340;10.138;2022-08-24T09:38:06;1.20;;;1.10;;
74559;SDS011;63032;54.340;10.138;2022-08-24T09:41:10;2.55;;;1.20;;
74559;SDS011;63032;54.340;10.138;2022-08-24T10:14:11;1.98;;;1.30;;
74559;SDS011;63032;54.340;10.138;2022-08-24T10:24:59;1.20;;;0.90;;
74559;SDS011;63032;54.340;10.138;2022-08-24T10:30:26;2.15;;;0.98;;
74559;SDS011;63032;54.340;10.138;2022-08-24T10:33:25;1.42;;;0.95;;
74559;SDS011;63032;54.340;10.138;2022-08-24T10:54:21;1.17;;;0.90;;
74559;SDS011;63032;54.340;10.138;2022-08-24T11:00:05;1.13;;;1.02;;
74559;SDS011;63032;54.340;10.138;2022-08-24T11:02:37;1.48;;;0.90;;
74559;SDS011;63032;54.340;10.138;2022-08-24T11:07:33;2.42;;;0.80;;
74559;SDS011;63032;54.340;10.138;2022-08-24T11:10:04;1.08;;;0.90;;
74559;SDS011;63032;54.340;10.138;2022-08-24T11:12:34;1.70;;;1.08;;
74559;SDS011;63032;54.340;10.138;2022-08-24T11:15:18;1.10;;;0.95;;
74559;SDS011;63032;54.340;10.138;2022-08-24T11:17:54;1.40;;;1.00;;
74559;SDS011;63032;54.340;10.138;2022-08-24T11:23:08;1.05;;;0.95;;
74559;SDS011;63032;54.340;10.138;2022-08-24T11:25:53;1.08;;;0.80;;
74559;SDS011;63032;54.340;10.138;2022-08-24T11:31:03;0.90;;;0.80;;
74559;SDS011;63032;54.340;10.138;2022-08-24T11:33:43;1.80;;;1.00;;
74559;SDS011;63032;54.340;10.138;2022-08-24T11:36:15;1.00;;;0.90;;
74559;SDS011;63032;54.340;10.138;2022-08-24T11:38:42;1.23;;;1.10;;
74559;SDS011;63032;54.340;10.138;2022-08-24T11:41:10;0.70;;;0.70;;
74559;SDS011;63032;54.340;10.138;2022-08-24T11:49:06;0.93;;;0.90;;
74559;SDS011;63032;54.340;10.138;2022-08-24T12:02:27;2.25;;;1.00;;
74559;SDS011;63032;54.340;10.138;2022-08-24T12:08:04;0.98;;;0.93;;
74559;SDS011;63032;54.340;10.138;2022-08-24T12:10:55;1.40;;;1.00;;
74559;SDS011;63032;54.340;10.138;2022-08-24T12:19:13;0.82;;;0.70;;
74559;SDS011;63032;54.340;10.138;2022-08-24T12:21:44;1.20;;;0.90;;
74559;SDS011;63032;54.340;10.138;2022-08-24T12:24:28;0.90;;;0.90;;
74559;SDS011;63032;54.340;10.138;2022-08-24T12:37:47;0.70;;;0.70;;
74559;SDS011;63032;54.340;10.138;2022-08-24T12:43:05;0.90;;;0.90;;
74559;SDS011;63032;54.340;10.138;2022-08-24T12:45:36;0.73;;;0.70;;
74559;SDS011;63032;54.340;10.138;2022-08-24T12:48:07;1.15;;;1.02;;
74559;SDS011;63032;54.340;10.138;2022-08-24T12:53:18;1.10;;;0.80;;
74559;SDS011;63032;54.340;10.138;2022-08-24T12:55:55;1.63;;;1.00;;
74559;SDS011;63032;54.340;10.138;2022-08-24T13:01:33;0.98;;;0.85;;
74559;SDS011;63032;54.340;10.138;2022-08-24T13:04:10;0.70;;;0.70;;
74559;SDS011;63032;54.340;10.138;2022-08-24T13:06:59;1.23;;;0.70;;
74559;SDS011;63032;54.340;10.138;2022-08-24T13:09:47;1.33;;;0.80;;
74559;SDS011;63032;54.340;10.138;2022-08-24T13:23:01;2.20;;;0.70;;
74559;SDS011;63032;54.340;10.138;2022-08-24T13:28:43;1.30;;;1.10;;
74559;SDS011;63032;54.340;10.138;2022-08-24T13:31:17;0.80;;;0.80;;
74559;SDS011;63032;54.340;10.138;2022-08-24T14:01:18;2.65;;;1.25;;
74559;SDS011;63032;54.340;10.138;2022-08-24T14:15:02;4.32;;;1.38;;
74559;SDS011;63032;54.340;10.138;2022-08-24T14:17:55;2.72;;;1.30;;
74559;SDS011;63032;54.340;10.138;2022-08-24T14:25:49;7.47;;;1.95;;
74559;SDS011;63032;54.340;10.138;2022-08-24T14:31:33;4.38;;;1.45;;
74559;SDS011;63032;54.340;10.138;2022-08-24T14:39:23;8.15;;;1.70;;
74559;SDS011;63032;54.340;10.138;2022-08-24T14:50:31;3.83;;;1.45;;
74559;SDS011;63032;54.340;10.138;2022-08-24T15:08:48;4.38;;;1.45;;
74559;SDS011;63032;54.340;10.138;2022-08-24T15:11:23;2.38;;;1.55;;
74559;SDS011;63032;54.340;10.138;2022-08-24T15:13:58;2.05;;;1.35;;
74559;SDS011;63032;54.340;10.138;2022-08-24T15:22:08;8.90;;;2.10;;
74559;SDS011;63032;54.340;10.138;2022-08-24T15:24:51;6.10;;;1.40;;
74559;SDS011;63032;54.340;10.138;2022-08-24T15:30:31;4.70;;;2.08;;
74559;SDS011;63032;54.340;10.138;2022-08-24T15:38:21;4.05;;;1.48;;
74559;SDS011;63032;54.340;10.138;2022-08-24T15:41:11;5.45;;;1.70;;
74559;SDS011;63032;54.340;10.138;2022-08-24T15:44:12;8.15;;;2.15;;
74559;SDS011;63032;54.340;10.138;2022-08-24T15:46:46;2.22;;;1.25;;
74559;SDS011;63032;54.340;10.138;2022-08-24T15:49:23;4.78;;;1.67;;
74559;SDS011;63032;54.340;10.138;2022-08-24T15:51:57;3.47;;;1.45;;
74559;SDS011;63032;54.340;10.138;2022-08-24T15:56:58;4.30;;;1.77;;
74559;SDS011;63032;54.340;10.138;2022-08-24T15:59:26;6.25;;;2.20;;
74559;SDS011;63032;54.340;10.138;2022-08-24T16:04:50;6.38;;;1.92;;
74559;SDS011;63032;54.340;10.138;2022-08-24T16:07:24;6.70;;;1.60;;
74559;SDS011;63032;54.340;10.138;2022-08-24T16:10:11;8.23;;;1.88;;
74559;SDS011;63032;54.340;10.138;2022-08-24T16:12:36;5.60;;;1.70;;
74559;SDS011;63032;54.340;10.138;2022-08-24T16:15:36;5.47;;;2.30;;
74559;SDS011;63032;54.340;10.138;2022-08-24T16:17:58;5.60;;;1.95;;
74559;SDS011;63032;54.340;10.138;2022-08-24T16:22:54;5.85;;;1.70;;
74559;SDS011;63032;54.340;10.138;2022-08-24T16:25:26;8.10;;;2.10;;
74559;SDS011;63032;54.340;10.138;2022-08-24T16:28:04;6.95;;;2.13;;
74559;SDS011;63032;54.340;10.138;2022-08-24T16:30:44;10.40;;;2.00;;
74559;SDS011;63032;54.340;10.138;2022-08-24T16:33:32;8.68;;;1.92;;
74559;SDS011;63032;54.340;10.138;2022-08-24T16:35:57;9.98;;;2.00;;
74559;SDS011;63032;54.340;10.138;2022-08-24T16:38:24;5.30;;;2.00;;
74559;SDS011;63032;54.340;10.138;2022-08-24T16:40:50;4.38;;;1.65;;
74559;SDS011;63032;54.340;10.138;2022-08-24T16:43:19;7.20;;;1.85;;
74559;SDS011;63032;54.340;10.138;2022-08-24T16:45:45;6.75;;;1.63;;
74559;SDS011;63032;54.340;10.138;2022-08-24T16:48:11;4.05;;;1.73;;
74559;SDS011;63032;54.340;10.138;2022-08-24T16:50:36;10.93;;;2.15;;
74559;SDS011;63032;54.340;10.138;2022-08-24T16:53:02;3.97;;;1.90;;
74559;SDS011;63032;54.340;10.138;2022-08-24T16:55:29;4.15;;;1.63;;
74559;SDS011;63032;54.340;10.138;2022-08-24T16:57:55;5.55;;;2.00;;
74559;SDS011;63032;54.340;10.138;2022-08-24T17:00:21;3.72;;;1.70;;
74559;SDS011;63032;54.340;10.138;2022-08-24T17:02:47;3.53;;;1.85;;
74559;SDS011;63032;54.340;10.138;2022-08-24T17:05:14;3.45;;;1.70;;
74559;SDS011;63032;54.340;10.138;2022-08-24T17:07:41;5.13;;;1.92;;
74559;SDS011;63032;54.340;10.138;2022-08-24T17:10:08;5.50;;;1.75;;
74559;SDS011;63032;54.340;10.138;2022-08-24T17:12:36;4.43;;;1.83;;
74559;SDS011;63032;54.340;10.138;2022-08-24T17:15:05;6.20;;;2.00;;
74559;SDS011;63032;54.340;10.138;2022-08-24T17:17:33;7.15;;;1.83;;
74559;SDS011;63032;54.340;10.138;2022-08-24T17:20:00;3.50;;;1.77;;
74559;SDS011;63032;54.340;10.138;2022-08-24T17:22:27;3.65;;;1.40;;
74559;SDS011;63032;54.340;10.138;2022-08-24T17:24:53;3.70;;;1.80;;
74559;SDS011;63032;54.340;10.138;2022-08-24T17:27:19;4.20;;;1.80;;
74559;SDS011;63032;54.340;10.138;2022-08-24T17:29:51;4.85;;;1.60;;
74559;SDS011;63032;54.340;10.138;2022-08-24T17:32:19;11.45;;;2.05;;
74559;SDS011;63032;54.340;10.138;2022-08-24T17:34:45;6.90;;;2.00;;
74559;SDS011;63032;54.340;10.138;2022-08-24T17:37:11;4.93;;;1.88;;
74559;SDS011;63032;54.340;10.138;2022-08-24T17:39:37;5.72;;;2.00;;
74559;SDS011;63032;54.340;10.138;2022-08-24T17:42:08;5.18;;;1.83;;
74559;SDS011;63032;54.340;10.138;2022-08-24T17:44:34;5.93;;;2.17;;
74559;SDS011;63032;54.340;10.138;2022-08-24T17:47:03;6.18;;;2.03;;
74559;SDS011;63032;54.340;10.138;2022-08-24T17:49:31;4.28;;;2.05;;
74559;SDS011;63032;54.340;10.138;2022-08-24T17:51:57;4.05;;;1.80;;
74559;SDS011;63032;54.340;10.138;2022-08-24T17:54:23;4.00;;;1.88;;
74559;SDS011;63032;54.340;10.138;2022-08-24T17:56:51;5.05;;;2.03;;
74559;SDS011;63032;54.340;10.138;2022-08-24T17:59:30;3.17;;;1.80;;
74559;SDS011;63032;54.340;10.138;2022-08-24T18:01:59;7.05;;;1.85;;
74559;SDS011;63032;54.340;10.138;2022-08-24T18:04:31;6.07;;;1.75;;
74559;SDS011;63032;54.340;10.138;2022-08-24T18:06:59;8.95;;;1.98;;
74559;SDS011;63032;54.340;10.138;2022-08-24T18:09:47;7.28;;;1.80;;
74559;SDS011;63032;54.340;10.138;2022-08-24T18:12:18;7.30;;;1.98;;
74559;SDS011;63032;54.340;10.138;2022-08-24T18:14:47;4.97;;;2.20;;
74559;SDS011;63032;54.340;10.138;2022-08-24T18:17:15;4.75;;;1.60;;
74559;SDS011;63032;54.340;10.138;2022-08-24T18:19:44;6.72;;;2.42;;
74559;SDS011;63032;54.340;10.138;2022-08-24T18:22:13;7.13;;;2.22;;
74559;SDS011;63032;54.340;10.138;2022-08-24T18:24:39;6.93;;;1.70;;
74559;SDS011;63032;54.340;10.138;2022-08-24T18:27:08;6.85;;;2.08;;
74559;SDS011;63032;54.340;10.138;2022-08-24T18:29:37;2.20;;;1.58;;
74559;SDS011;63032;54.340;10.138;2022-08-24T18:32:05;3.10;;;2.25;;
74559;SDS011;63032;54.340;10.138;2022-08-24T18:34:31;4.50;;;2.33;;
74559;SDS011;63032;54.340;10.138;2022-08-24T18:36:58;4.85;;;2.35;;
74559;SDS011;63032;54.340;10.138;2022-08-24T18:39:24;5.75;;;1.63;;
74559;SDS011;63032;54.340;10.138;2022-08-24T18:41:50;4.35;;;1.90;;
74559;SDS011;63032;54.340;10.138;2022-08-24T18:44:19;7.30;;;2.05;;
74559;SDS011;63032;54.340;10.138;2022-08-24T18:46:46;6.07;;;2.22;;
74559;SDS011;63032;54.340;10.138;2022-08-24T18:49:12;3.58;;;2.17;;
74559;SDS011;63032;54.340;10.138;2022-08-24T18:51:39;3.05;;;1.90;;
74559;SDS011;63032;54.340;10.138;2022-08-24T18:54:07;2.95;;;1.60;;
74559;SDS011;63032;54.340;10.138;2022-08-24T18:56:35;3.55;;;2.03;;
74559;SDS011;63032;54.340;10.138;2022-08-24T18:59:02;7.57;;;2.42;;
74559;SDS011;63032;54.340;10.138;2022-08-24T19:01:28;8.75;;;2.10;;
74559;SDS011;63032;54.340;10.138;2022-08-24T19:03:54;5.22;;;2.08;;
74559;SDS011;63032;54.340;10.138;2022-08-24T19:06:22;7.70;;;1.70;;
74559;SDS011;63032;54.340;10.138;2022-08-24T19:08:48;5.28;;;2.03;;
74559;SDS011;63032;54.340;10.138;2022-08-24T19:11:15;8.82;;;2.10;;
74559;SDS011;63032;54.340;10.138;2022-08-24T19:13:45;3.65;;;1.70;;
74559;SDS011;63032;54.340;10.138;2022-08-24T19:16:11;6.68;;;1.92;;
74559;SDS011;63032;54.340;10.138;2022-08-24T19:18:37;3.47;;;1.80;;
74559;SDS011;63032;54.340;10.138;2022-08-24T19:21:03;4.38;;;2.00;;
74559;SDS011;63032;54.340;10.138;2022-08-24T19:23:30;4.40;;;1.80;;
74559;SDS011;63032;54.340;10.138;2022-08-24T19:25:58;5.57;;;1.92;;
74559;SDS011;63032;54.340;10.138;2022-08-24T19:28:25;2.83;;;1.70;;
74559;SDS011;63032;54.340;10.138;2022-08-24T19:30:55;9.63;;;2.28;;